TKPK Airport Information

Runway Information
Runway 07 Length 7602 ft width 148 ft
Elevation 168 ft Threshold 200 ft Heading 57
Runway 25 Length 7602 ft Width 148 ft
Elevation 161 ft Threshold 0 ft Heading 237
Airport Frequencies
Type APP Name APP Frequency 119.6 MHZ
Type GND Name GND Frequency 121.9 MHZ
Type TWR Name TWR Frequency 118.3 MHZ
Airport Navaids
Type NDB-DME Name Bradshaw Frequency 325 KHZ
Airport Weather Information & NOTAM
ADDS - METARS form results

(1552 UTC 25 June 2018)
 
METAR text: TKPK 251500Z 07015KT 9999 FEW022 30/23 Q1019
Conditions at: TKPK (GOLDEN ROCKS/NEV, KN) observed 1500 UTC 25 June 2018
Temperature: 30.0°C (86°F)
Dewpoint: 23.0°C (73°F) [RH = 66%]
Pressure (altimeter): 30.09 inches Hg (1019.0 mb)
Winds: from the ENE (70 degrees) at 17 MPH (15 knots; 7.8 m/s)
Visibility: 6 or more miles (10+ km)
Ceiling: at least 12,000 feet AGL
Clouds: few clouds at 2200 feet AGL
Weather: no significant weather observed at this time